Flagler Beach, Florida
Current Conditions -  °F | °C
As of 8:53 AM on Friday 31 Oct 2014 (Local Time) from KDAB Reporting Station
Scattered Clouds Scattered Clouds  
Wind Chill: 64°   Ceiling: Unl
Heat Index: 64°   Visibility: 10mi
Dew Point: 61°   Wind: 5mph
Humidity: 90%   Direction: 270°W
Pressure: 29.87"   Gusts: NA
Location:  29.47°N, 81.13°W
Report Text: KDAB 311253Z 27004KT 10SM FEW045 SCT055 SCT070 18/16 A2987 RMK AO2 SLP113 T01780161
Loading
Personal Weather Stations






























Interactive Weather Map
Tropical Storm Tracking
New forecast layout! Learn more

10-Day Weather Forecast

Advertisements
Track Severe Weather on mobile